sensor_id;sensor_type;location;lat;lon;timestamp;temperature;humidity
26099;DHT22;13860;52.370;6.764;2023-04-25T00:01:40;9.60;73.00
26099;DHT22;13860;52.370;6.764;2023-04-25T00:04:46;9.60;72.40
26099;DHT22;13860;52.370;6.764;2023-04-25T00:07:50;9.60;72.50
26099;DHT22;13860;52.370;6.764;2023-04-25T00:10:58;9.50;72.40
26099;DHT22;13860;52.370;6.764;2023-04-25T00:14:02;9.50;72.40
26099;DHT22;13860;52.370;6.764;2023-04-25T00:17:08;9.50;72.40
26099;DHT22;13860;52.370;6.764;2023-04-25T00:20:12;9.40;72.50
26099;DHT22;13860;52.370;6.764;2023-04-25T00:23:18;9.40;72.40
26099;DHT22;13860;52.370;6.764;2023-04-25T00:26:24;9.40;72.50
26099;DHT22;13860;52.370;6.764;2023-04-25T00:29:30;9.40;72.50
26099;DHT22;13860;52.370;6.764;2023-04-25T00:32:33;9.40;72.50
26099;DHT22;13860;52.370;6.764;2023-04-25T00:35:39;9.40;72.40
26099;DHT22;13860;52.370;6.764;2023-04-25T00:38:43;9.40;72.40
26099;DHT22;13860;52.370;6.764;2023-04-25T00:41:51;9.40;72.50
26099;DHT22;13860;52.370;6.764;2023-04-25T00:44:56;9.30;72.40
26099;DHT22;13860;52.370;6.764;2023-04-25T00:48:02;9.30;72.40
26099;DHT22;13860;52.370;6.764;2023-04-25T00:51:07;9.30;72.50
26099;DHT22;13860;52.370;6.764;2023-04-25T00:54:14;9.20;72.40
26099;DHT22;13860;52.370;6.764;2023-04-25T00:57:20;9.30;72.40
26099;DHT22;13860;52.370;6.764;2023-04-25T01:00:26;9.20;72.40
26099;DHT22;13860;52.370;6.764;2023-04-25T01:03:30;9.20;72.40
26099;DHT22;13860;52.370;6.764;2023-04-25T01:06:39;9.20;73.00
26099;DHT22;13860;52.370;6.764;2023-04-25T01:09:43;9.20;72.40
26099;DHT22;13860;52.370;6.764;2023-04-25T01:12:51;9.20;72.40
26099;DHT22;13860;52.370;6.764;2023-04-25T01:15:55;9.20;72.40
26099;DHT22;13860;52.370;6.764;2023-04-25T01:19:00;9.20;72.40
26099;DHT22;13860;52.370;6.764;2023-04-25T01:22:06;9.10;72.30
26099;DHT22;13860;52.370;6.764;2023-04-25T01:25:13;9.10;72.40
26099;DHT22;13860;52.370;6.764;2023-04-25T01:28:18;9.10;72.30
26099;DHT22;13860;52.370;6.764;2023-04-25T01:31:23;9.10;72.40
26099;DHT22;13860;52.370;6.764;2023-04-25T01:34:28;9.00;72.40
26099;DHT22;13860;52.370;6.764;2023-04-25T01:37:37;9.00;72.40
26099;DHT22;13860;52.370;6.764;2023-04-25T01:40:40;8.90;72.50
26099;DHT22;13860;52.370;6.764;2023-04-25T01:43:46;8.90;72.50
26099;DHT22;13860;52.370;6.764;2023-04-25T01:46:51;8.90;72.50
26099;DHT22;13860;52.370;6.764;2023-04-25T01:49:57;8.80;72.40
26099;DHT22;13860;52.370;6.764;2023-04-25T01:53:02;8.80;72.40
26099;DHT22;13860;52.370;6.764;2023-04-25T01:56:09;8.80;72.50
26099;DHT22;13860;52.370;6.764;2023-04-25T01:59:14;8.80;72.40
26099;DHT22;13860;52.370;6.764;2023-04-25T02:02:36;8.80;72.50
26099;DHT22;13860;52.370;6.764;2023-04-25T02:05:47;8.70;72.50
26099;DHT22;13860;52.370;6.764;2023-04-25T02:08:55;8.70;72.50
26099;DHT22;13860;52.370;6.764;2023-04-25T02:11:59;8.70;72.50
26099;DHT22;13860;52.370;6.764;2023-04-25T02:15:11;8.60;72.60
26099;DHT22;13860;52.370;6.764;2023-04-25T02:18:28;8.60;72.60
26099;DHT22;13860;52.370;6.764;2023-04-25T02:21:34;8.60;72.60
26099;DHT22;13860;52.370;6.764;2023-04-25T02:24:40;8.60;72.70
26099;DHT22;13860;52.370;6.764;2023-04-25T02:27:46;8.60;72.60
26099;DHT22;13860;52.370;6.764;2023-04-25T02:30:50;8.60;72.70
26099;DHT22;13860;52.370;6.764;2023-04-25T02:33:56;8.50;72.60
26099;DHT22;13860;52.370;6.764;2023-04-25T02:36:59;8.50;72.60
26099;DHT22;13860;52.370;6.764;2023-04-25T02:40:08;8.50;72.60
26099;DHT22;13860;52.370;6.764;2023-04-25T02:43:12;8.50;72.60
26099;DHT22;13860;52.370;6.764;2023-04-25T02:46:19;8.50;72.70
26099;DHT22;13860;52.370;6.764;2023-04-25T02:49:40;8.50;72.70
26099;DHT22;13860;52.370;6.764;2023-04-25T02:52:46;8.40;72.70
26099;DHT22;13860;52.370;6.764;2023-04-25T02:55:57;8.40;72.60
26099;DHT22;13860;52.370;6.764;2023-04-25T02:59:03;8.40;72.60
26099;DHT22;13860;52.370;6.764;2023-04-25T03:02:07;8.40;72.70
26099;DHT22;13860;52.370;6.764;2023-04-25T03:05:13;8.30;72.60
26099;DHT22;13860;52.370;6.764;2023-04-25T03:08:18;8.30;72.70
26099;DHT22;13860;52.370;6.764;2023-04-25T03:11:26;8.30;72.70
26099;DHT22;13860;52.370;6.764;2023-04-25T03:14:30;8.30;72.70
26099;DHT22;13860;52.370;6.764;2023-04-25T03:17:36;8.30;72.70
26099;DHT22;13860;52.370;6.764;2023-04-25T03:20:40;8.30;72.70
26099;DHT22;13860;52.370;6.764;2023-04-25T03:23:46;8.30;72.80
26099;DHT22;13860;52.370;6.764;2023-04-25T03:26:52;8.30;72.70
26099;DHT22;13860;52.370;6.764;2023-04-25T03:29:58;8.30;72.70
26099;DHT22;13860;52.370;6.764;2023-04-25T03:33:02;8.30;72.70
26099;DHT22;13860;52.370;6.764;2023-04-25T03:36:08;8.30;72.70
26099;DHT22;13860;52.370;6.764;2023-04-25T03:39:12;8.30;72.70
26099;DHT22;13860;52.370;6.764;2023-04-25T03:42:25;8.30;73.30
26099;DHT22;13860;52.370;6.764;2023-04-25T03:45:28;8.30;72.70
26099;DHT22;13860;52.370;6.764;2023-04-25T03:48:34;8.30;72.70
26099;DHT22;13860;52.370;6.764;2023-04-25T03:51:38;8.30;72.70
26099;DHT22;13860;52.370;6.764;2023-04-25T03:54:44;8.40;72.70
26099;DHT22;13860;52.370;6.764;2023-04-25T03:57:53;8.40;72.70
26099;DHT22;13860;52.370;6.764;2023-04-25T04:00:59;8.30;72.70
26099;DHT22;13860;52.370;6.764;2023-04-25T04:04:06;8.40;72.80
26099;DHT22;13860;52.370;6.764;2023-04-25T04:07:12;8.40;72.70
26099;DHT22;13860;52.370;6.764;2023-04-25T04:10:19;8.40;72.80
26099;DHT22;13860;52.370;6.764;2023-04-25T04:13:27;8.40;72.70
26099;DHT22;13860;52.370;6.764;2023-04-25T04:16:31;8.40;72.70
26099;DHT22;13860;52.370;6.764;2023-04-25T04:19:37;8.40;72.70
26099;DHT22;13860;52.370;6.764;2023-04-25T04:22:52;8.40;72.70
26099;DHT22;13860;52.370;6.764;2023-04-25T04:26:00;8.40;72.80
26099;DHT22;13860;52.370;6.764;2023-04-25T04:29:06;8.40;72.80
26099;DHT22;13860;52.370;6.764;2023-04-25T04:32:17;8.40;72.80
26099;DHT22;13860;52.370;6.764;2023-04-25T04:35:21;8.40;72.80
26099;DHT22;13860;52.370;6.764;2023-04-25T04:38:28;8.40;72.80
26099;DHT22;13860;52.370;6.764;2023-04-25T04:41:35;8.40;72.70
26099;DHT22;13860;52.370;6.764;2023-04-25T04:44:53;8.40;72.80
26099;DHT22;13860;52.370;6.764;2023-04-25T04:48:20;8.40;72.80
26099;DHT22;13860;52.370;6.764;2023-04-25T04:51:31;8.40;72.80
26099;DHT22;13860;52.370;6.764;2023-04-25T04:54:58;8.40;73.50
26099;DHT22;13860;52.370;6.764;2023-04-25T04:58:10;8.40;72.90
26099;DHT22;13860;52.370;6.764;2023-04-25T05:01:25;8.40;72.90
26099;DHT22;13860;52.370;6.764;2023-04-25T05:04:38;8.40;72.80
26099;DHT22;13860;52.370;6.764;2023-04-25T05:07:58;8.40;72.90
26099;DHT22;13860;52.370;6.764;2023-04-25T05:11:21;8.30;72.80
26099;DHT22;13860;52.370;6.764;2023-04-25T05:14:58;8.30;72.90
26099;DHT22;13860;52.370;6.764;2023-04-25T05:18:24;8.30;72.90
26099;DHT22;13860;52.370;6.764;2023-04-25T05:21:49;8.30;72.90
26099;DHT22;13860;52.370;6.764;2023-04-25T05:25:11;8.30;72.90
26099;DHT22;13860;52.370;6.764;2023-04-25T05:28:31;8.40;72.90
26099;DHT22;13860;52.370;6.764;2023-04-25T05:31:50;8.40;72.90
26099;DHT22;13860;52.370;6.764;2023-04-25T05:34:56;8.30;72.90
26099;DHT22;13860;52.370;6.764;2023-04-25T05:38:06;8.40;72.90
26099;DHT22;13860;52.370;6.764;2023-04-25T05:41:35;8.40;72.90
26099;DHT22;13860;52.370;6.764;2023-04-25T05:45:05;8.40;72.90
26099;DHT22;13860;52.370;6.764;2023-04-25T05:48:29;8.40;72.80
26099;DHT22;13860;52.370;6.764;2023-04-25T05:51:43;8.40;72.80
26099;DHT22;13860;52.370;6.764;2023-04-25T05:54:49;8.40;72.80
26099;DHT22;13860;52.370;6.764;2023-04-25T05:57:56;8.50;72.90
26099;DHT22;13860;52.370;6.764;2023-04-25T06:01:01;8.50;72.90
26099;DHT22;13860;52.370;6.764;2023-04-25T06:04:07;8.50;72.90
26099;DHT22;13860;52.370;6.764;2023-04-25T06:07:13;8.50;72.90
26099;DHT22;13860;52.370;6.764;2023-04-25T06:10:19;8.50;72.90
26099;DHT22;13860;52.370;6.764;2023-04-25T06:13:23;8.50;72.90
26099;DHT22;13860;52.370;6.764;2023-04-25T06:16:30;8.60;73.00
26099;DHT22;13860;52.370;6.764;2023-04-25T06:19:34;8.50;72.90
26099;DHT22;13860;52.370;6.764;2023-04-25T06:22:42;8.60;72.90
26099;DHT22;13860;52.370;6.764;2023-04-25T06:25:46;8.60;72.90
26099;DHT22;13860;52.370;6.764;2023-04-25T06:28:52;8.50;72.90
26099;DHT22;13860;52.370;6.764;2023-04-25T06:31:56;8.60;72.90
26099;DHT22;13860;52.370;6.764;2023-04-25T06:35:02;8.60;72.90
26099;DHT22;13860;52.370;6.764;2023-04-25T06:38:10;8.60;72.90
26099;DHT22;13860;52.370;6.764;2023-04-25T06:41:17;8.70;72.90
26099;DHT22;13860;52.370;6.764;2023-04-25T06:44:22;8.70;72.90
26099;DHT22;13860;52.370;6.764;2023-04-25T06:47:30;8.80;72.90
26099;DHT22;13860;52.370;6.764;2023-04-25T06:50:34;8.90;73.10
26099;DHT22;13860;52.370;6.764;2023-04-25T06:53:42;9.00;73.00
26099;DHT22;13860;52.370;6.764;2023-04-25T06:56:56;9.10;73.00
26099;DHT22;13860;52.370;6.764;2023-04-25T07:00:05;9.30;73.00
26099;DHT22;13860;52.370;6.764;2023-04-25T07:03:12;9.40;73.00
26099;DHT22;13860;52.370;6.764;2023-04-25T07:06:18;9.50;72.90
26099;DHT22;13860;52.370;6.764;2023-04-25T07:09:24;9.60;72.90
26099;DHT22;13860;52.370;6.764;2023-04-25T07:12:31;9.70;72.80
26099;DHT22;13860;52.370;6.764;2023-04-25T07:15:35;9.80;72.70
26099;DHT22;13860;52.370;6.764;2023-04-25T07:18:42;9.80;72.60
26099;DHT22;13860;52.370;6.764;2023-04-25T07:21:46;9.90;72.70
26099;DHT22;13860;52.370;6.764;2023-04-25T07:24:54;10.00;72.70
26099;DHT22;13860;52.370;6.764;2023-04-25T07:28:00;10.10;72.70
26099;DHT22;13860;52.370;6.764;2023-04-25T07:31:06;10.10;72.60
26099;DHT22;13860;52.370;6.764;2023-04-25T07:34:10;10.20;72.50
26099;DHT22;13860;52.370;6.764;2023-04-25T07:37:16;10.20;72.50
26099;DHT22;13860;52.370;6.764;2023-04-25T07:40:35;10.20;72.60
26099;DHT22;13860;52.370;6.764;2023-04-25T07:43:44;10.30;72.60
26099;DHT22;13860;52.370;6.764;2023-04-25T07:46:48;10.40;72.60
26099;DHT22;13860;52.370;6.764;2023-04-25T07:49:54;10.50;72.60
26099;DHT22;13860;52.370;6.764;2023-04-25T07:52:59;10.60;72.70
26099;DHT22;13860;52.370;6.764;2023-04-25T07:56:12;10.70;72.70
26099;DHT22;13860;52.370;6.764;2023-04-25T07:59:19;10.90;72.60
26099;DHT22;13860;52.370;6.764;2023-04-25T08:02:25;11.00;72.60
26099;DHT22;13860;52.370;6.764;2023-04-25T08:05:30;11.20;72.50
26099;DHT22;13860;52.370;6.764;2023-04-25T08:08:40;11.50;72.50
26099;DHT22;13860;52.370;6.764;2023-04-25T08:11:49;11.50;72.40
26099;DHT22;13860;52.370;6.764;2023-04-25T08:15:00;11.60;72.30
26099;DHT22;13860;52.370;6.764;2023-04-25T08:18:08;11.70;72.20
26099;DHT22;13860;52.370;6.764;2023-04-25T08:21:14;11.80;72.10
26099;DHT22;13860;52.370;6.764;2023-04-25T08:24:18;11.80;72.10
26099;DHT22;13860;52.370;6.764;2023-04-25T08:27:26;11.90;72.00
26099;DHT22;13860;52.370;6.764;2023-04-25T08:30:31;12.00;72.00
26099;DHT22;13860;52.370;6.764;2023-04-25T08:33:37;12.00;72.00
26099;DHT22;13860;52.370;6.764;2023-04-25T08:36:54;12.10;72.00
26099;DHT22;13860;52.370;6.764;2023-04-25T08:40:14;12.20;71.80
26099;DHT22;13860;52.370;6.764;2023-04-25T08:43:43;12.20;71.80
26099;DHT22;13860;52.370;6.764;2023-04-25T08:46:50;12.20;71.80
26099;DHT22;13860;52.370;6.764;2023-04-25T08:50:02;12.20;71.50
26099;DHT22;13860;52.370;6.764;2023-04-25T08:53:09;12.20;71.50
26099;DHT22;13860;52.370;6.764;2023-04-25T08:56:15;12.10;71.50
26099;DHT22;13860;52.370;6.764;2023-04-25T08:59:23;12.10;71.60
26099;DHT22;13860;52.370;6.764;2023-04-25T09:02:27;11.80;71.50
26099;DHT22;13860;52.370;6.764;2023-04-25T09:05:33;12.10;71.60
26099;DHT22;13860;52.370;6.764;2023-04-25T09:08:37;12.20;71.70
26099;DHT22;13860;52.370;6.764;2023-04-25T09:11:44;12.20;71.70
26099;DHT22;13860;52.370;6.764;2023-04-25T09:15:05;12.20;71.60
26099;DHT22;13860;52.370;6.764;2023-04-25T09:18:35;12.20;71.60
26099;DHT22;13860;52.370;6.764;2023-04-25T09:21:40;12.20;71.50
26099;DHT22;13860;52.370;6.764;2023-04-25T09:24:45;12.30;71.60
26099;DHT22;13860;52.370;6.764;2023-04-25T09:27:52;12.20;71.40
26099;DHT22;13860;52.370;6.764;2023-04-25T09:31:06;12.30;71.40
26099;DHT22;13860;52.370;6.764;2023-04-25T09:34:20;12.20;71.40
26099;DHT22;13860;52.370;6.764;2023-04-25T09:37:31;12.20;71.40
26099;DHT22;13860;52.370;6.764;2023-04-25T09:40:55;12.10;71.30
26099;DHT22;13860;52.370;6.764;2023-04-25T09:44:12;12.10;71.30
26099;DHT22;13860;52.370;6.764;2023-04-25T09:47:19;12.00;71.20
26099;DHT22;13860;52.370;6.764;2023-04-25T09:50:27;11.90;71.20
26099;DHT22;13860;52.370;6.764;2023-04-25T09:53:40;11.80;71.10
26099;DHT22;13860;52.370;6.764;2023-04-25T09:56:53;11.80;71.20
26099;DHT22;13860;52.370;6.764;2023-04-25T09:59:57;11.80;71.30
26099;DHT22;13860;52.370;6.764;2023-04-25T10:03:19;11.70;71.30
26099;DHT22;13860;52.370;6.764;2023-04-25T10:06:39;11.80;71.40
26099;DHT22;13860;52.370;6.764;2023-04-25T10:09:47;11.80;71.60
26099;DHT22;13860;52.370;6.764;2023-04-25T10:12:51;11.90;71.60
26099;DHT22;13860;52.370;6.764;2023-04-25T10:15:57;12.10;71.60
26099;DHT22;13860;52.370;6.764;2023-04-25T10:19:04;12.20;71.60
26099;DHT22;13860;52.370;6.764;2023-04-25T10:22:11;12.40;71.50
26099;DHT22;13860;52.370;6.764;2023-04-25T10:25:16;12.60;71.30
26099;DHT22;13860;52.370;6.764;2023-04-25T10:28:22;12.80;71.20
26099;DHT22;13860;52.370;6.764;2023-04-25T10:31:26;13.00;71.20
26099;DHT22;13860;52.370;6.764;2023-04-25T10:34:40;13.20;71.00
26099;DHT22;13860;52.370;6.764;2023-04-25T10:37:57;13.40;70.90
26099;DHT22;13860;52.370;6.764;2023-04-25T10:41:03;13.60;70.80
26099;DHT22;13860;52.370;6.764;2023-04-25T10:44:09;13.80;70.80
26099;DHT22;13860;52.370;6.764;2023-04-25T10:47:15;13.90;70.70
26099;DHT22;13860;52.370;6.764;2023-04-25T10:50:39;13.90;70.40
26099;DHT22;13860;52.370;6.764;2023-04-25T10:53:45;14.00;70.30
26099;DHT22;13860;52.370;6.764;2023-04-25T10:56:49;14.00;70.30
26099;DHT22;13860;52.370;6.764;2023-04-25T11:00:00;14.10;70.60
26099;DHT22;13860;52.370;6.764;2023-04-25T11:03:06;14.20;70.40
26099;DHT22;13860;52.370;6.764;2023-04-25T11:06:18;14.20;70.70
26099;DHT22;13860;52.370;6.764;2023-04-25T11:09:24;14.30;70.50
26099;DHT22;13860;52.370;6.764;2023-04-25T11:12:30;14.40;70.30
26099;DHT22;13860;52.370;6.764;2023-04-25T11:15:34;14.50;70.90
26099;DHT22;13860;52.370;6.764;2023-04-25T11:18:40;14.60;70.30
26099;DHT22;13860;52.370;6.764;2023-04-25T11:21:46;14.60;70.30
26099;DHT22;13860;52.370;6.764;2023-04-25T11:24:52;14.70;70.50
26099;DHT22;13860;52.370;6.764;2023-04-25T11:27:57;14.90;70.30
26099;DHT22;13860;52.370;6.764;2023-04-25T11:31:04;15.00;70.60
26099;DHT22;13860;52.370;6.764;2023-04-25T11:34:08;15.20;70.10
26099;DHT22;13860;52.370;6.764;2023-04-25T11:37:15;15.30;70.40
26099;DHT22;13860;52.370;6.764;2023-04-25T11:40:19;15.40;70.30
26099;DHT22;13860;52.370;6.764;2023-04-25T11:43:25;15.50;69.90
26099;DHT22;13860;52.370;6.764;2023-04-25T11:46:29;15.60;69.80
26099;DHT22;13860;52.370;6.764;2023-04-25T11:49:35;15.60;69.60
26099;DHT22;13860;52.370;6.764;2023-04-25T11:52:41;15.40;69.60
26099;DHT22;13860;52.370;6.764;2023-04-25T11:55:47;15.30;69.60
26099;DHT22;13860;52.370;6.764;2023-04-25T11:58:59;15.10;69.80
26099;DHT22;13860;52.370;6.764;2023-04-25T12:02:06;15.00;69.50
26099;DHT22;13860;52.370;6.764;2023-04-25T12:05:10;14.80;70.00
26099;DHT22;13860;52.370;6.764;2023-04-25T12:08:37;14.60;69.60
26099;DHT22;13860;52.370;6.764;2023-04-25T12:11:41;14.40;69.60
26099;DHT22;13860;52.370;6.764;2023-04-25T12:14:48;14.20;70.00
26099;DHT22;13860;52.370;6.764;2023-04-25T12:17:53;14.00;70.00
26099;DHT22;13860;52.370;6.764;2023-04-25T12:20:59;13.90;70.30
26099;DHT22;13860;52.370;6.764;2023-04-25T12:24:11;13.80;71.00
26099;DHT22;13860;52.370;6.764;2023-04-25T12:27:17;13.80;70.10
26099;DHT22;13860;52.370;6.764;2023-04-25T12:30:21;13.70;70.40
26099;DHT22;13860;52.370;6.764;2023-04-25T12:33:28;13.80;70.50
26099;DHT22;13860;52.370;6.764;2023-04-25T12:36:31;13.90;70.20
26099;DHT22;13860;52.370;6.764;2023-04-25T12:39:39;13.90;70.30
26099;DHT22;13860;52.370;6.764;2023-04-25T12:42:43;14.00;70.30
26099;DHT22;13860;52.370;6.764;2023-04-25T12:45:49;14.00;70.00
26099;DHT22;13860;52.370;6.764;2023-04-25T12:48:53;14.10;69.80
26099;DHT22;13860;52.370;6.764;2023-04-25T12:52:11;14.10;69.80
26099;DHT22;13860;52.370;6.764;2023-04-25T12:55:17;14.10;69.90
26099;DHT22;13860;52.370;6.764;2023-04-25T12:58:22;14.10;69.90
26099;DHT22;13860;52.370;6.764;2023-04-25T13:01:27;14.10;69.80
26099;DHT22;13860;52.370;6.764;2023-04-25T13:04:32;14.10;69.70
26099;DHT22;13860;52.370;6.764;2023-04-25T13:07:36;14.10;69.90
26099;DHT22;13860;52.370;6.764;2023-04-25T13:10:44;14.00;69.80
26099;DHT22;13860;52.370;6.764;2023-04-25T13:13:48;14.00;69.90
26099;DHT22;13860;52.370;6.764;2023-04-25T13:16:54;14.10;69.70
26099;DHT22;13860;52.370;6.764;2023-04-25T13:19:58;14.00;69.80
26099;DHT22;13860;52.370;6.764;2023-04-25T13:23:03;14.10;69.60
26099;DHT22;13860;52.370;6.764;2023-04-25T13:26:09;14.10;69.70
26099;DHT22;13860;52.370;6.764;2023-04-25T13:29:15;14.10;69.40
26099;DHT22;13860;52.370;6.764;2023-04-25T13:32:19;14.00;69.40
26099;DHT22;13860;52.370;6.764;2023-04-25T13:35:24;14.00;69.30
26099;DHT22;13860;52.370;6.764;2023-04-25T13:38:28;14.00;69.30
26099;DHT22;13860;52.370;6.764;2023-04-25T13:41:36;13.90;69.20
26099;DHT22;13860;52.370;6.764;2023-04-25T13:44:40;13.90;69.20
26099;DHT22;13860;52.370;6.764;2023-04-25T13:47:46;13.90;69.40
26099;DHT22;13860;52.370;6.764;2023-04-25T13:50:49;13.80;69.30
26099;DHT22;13860;52.370;6.764;2023-04-25T13:53:55;13.80;69.20
26099;DHT22;13860;52.370;6.764;2023-04-25T13:57:01;13.70;69.10
26099;DHT22;13860;52.370;6.764;2023-04-25T14:00:07;13.70;69.00
26099;DHT22;13860;52.370;6.764;2023-04-25T14:03:12;13.70;69.20
26099;DHT22;13860;52.370;6.764;2023-04-25T14:06:18;13.70;69.50
26099;DHT22;13860;52.370;6.764;2023-04-25T14:09:24;13.80;69.20
26099;DHT22;13860;52.370;6.764;2023-04-25T14:12:32;13.80;69.10
26099;DHT22;13860;52.370;6.764;2023-04-25T14:15:36;13.90;68.90
26099;DHT22;13860;52.370;6.764;2023-04-25T14:18:42;13.90;69.00
26099;DHT22;13860;52.370;6.764;2023-04-25T14:21:46;13.90;68.70
26099;DHT22;13860;52.370;6.764;2023-04-25T14:24:52;14.00;68.70
26099;DHT22;13860;52.370;6.764;2023-04-25T14:27:57;13.90;69.20
26099;DHT22;13860;52.370;6.764;2023-04-25T14:31:03;14.00;68.60
26099;DHT22;13860;52.370;6.764;2023-04-25T14:34:07;13.90;68.40
26099;DHT22;13860;52.370;6.764;2023-04-25T14:37:14;13.80;68.30
26099;DHT22;13860;52.370;6.764;2023-04-25T14:40:18;13.70;68.40
26099;DHT22;13860;52.370;6.764;2023-04-25T14:43:28;13.50;68.40
26099;DHT22;13860;52.370;6.764;2023-04-25T14:46:32;13.30;68.50
26099;DHT22;13860;52.370;6.764;2023-04-25T14:49:37;13.20;68.80
26099;DHT22;13860;52.370;6.764;2023-04-25T14:52:41;13.00;68.70
26099;DHT22;13860;52.370;6.764;2023-04-25T14:55:48;12.90;68.50
26099;DHT22;13860;52.370;6.764;2023-04-25T14:58:54;12.80;68.90
26099;DHT22;13860;52.370;6.764;2023-04-25T15:02:00;12.80;68.60
26099;DHT22;13860;52.370;6.764;2023-04-25T15:05:05;12.70;68.60
26099;DHT22;13860;52.370;6.764;2023-04-25T15:08:12;12.60;68.50
26099;DHT22;13860;52.370;6.764;2023-04-25T15:11:15;12.50;68.60
26099;DHT22;13860;52.370;6.764;2023-04-25T15:14:23;12.50;69.00
26099;DHT22;13860;52.370;6.764;2023-04-25T15:17:27;12.40;68.70
26099;DHT22;13860;52.370;6.764;2023-04-25T15:20:34;12.40;68.90
26099;DHT22;13860;52.370;6.764;2023-04-25T15:23:38;12.30;68.60
26099;DHT22;13860;52.370;6.764;2023-04-25T15:26:44;12.30;69.00
26099;DHT22;13860;52.370;6.764;2023-04-25T15:29:49;12.20;68.80
26099;DHT22;13860;52.370;6.764;2023-04-25T15:32:56;12.20;68.70
26099;DHT22;13860;52.370;6.764;2023-04-25T15:36:00;12.20;68.90
26099;DHT22;13860;52.370;6.764;2023-04-25T15:39:06;12.10;68.60
26099;DHT22;13860;52.370;6.764;2023-04-25T15:42:10;12.10;68.80
26099;DHT22;13860;52.370;6.764;2023-04-25T15:45:18;12.00;68.70
26099;DHT22;13860;52.370;6.764;2023-04-25T15:48:22;12.00;68.70
26099;DHT22;13860;52.370;6.764;2023-04-25T15:51:28;12.00;68.80
26099;DHT22;13860;52.370;6.764;2023-04-25T15:54:32;12.00;68.70
26099;DHT22;13860;52.370;6.764;2023-04-25T15:57:38;12.00;68.70
26099;DHT22;13860;52.370;6.764;2023-04-25T16:00:44;12.00;68.40
26099;DHT22;13860;52.370;6.764;2023-04-25T16:03:51;12.00;68.80
26099;DHT22;13860;52.370;6.764;2023-04-25T16:06:57;11.90;68.50
26099;DHT22;13860;52.370;6.764;2023-04-25T16:10:04;11.90;68.50
26099;DHT22;13860;52.370;6.764;2023-04-25T16:13:08;11.90;68.40
26099;DHT22;13860;52.370;6.764;2023-04-25T16:16:15;11.80;68.50
26099;DHT22;13860;52.370;6.764;2023-04-25T16:19:19;11.80;68.30
26099;DHT22;13860;52.370;6.764;2023-04-25T16:22:25;11.70;68.40
26099;DHT22;13860;52.370;6.764;2023-04-25T16:25:29;11.70;68.40
26099;DHT22;13860;52.370;6.764;2023-04-25T16:28:35;11.60;68.50
26099;DHT22;13860;52.370;6.764;2023-04-25T16:31:40;11.70;68.30
26099;DHT22;13860;52.370;6.764;2023-04-25T16:34:46;11.60;68.40
26099;DHT22;13860;52.370;6.764;2023-04-25T16:37:51;11.50;68.30
26099;DHT22;13860;52.370;6.764;2023-04-25T16:40:56;11.50;68.80
26099;DHT22;13860;52.370;6.764;2023-04-25T16:44:00;11.50;68.30
26099;DHT22;13860;52.370;6.764;2023-04-25T16:47:08;11.40;68.60
26099;DHT22;13860;52.370;6.764;2023-04-25T16:50:14;11.40;68.40
26099;DHT22;13860;52.370;6.764;2023-04-25T16:53:20;11.40;69.10
26099;DHT22;13860;52.370;6.764;2023-04-25T16:56:24;11.40;68.60
26099;DHT22;13860;52.370;6.764;2023-04-25T16:59:30;11.30;68.50
26099;DHT22;13860;52.370;6.764;2023-04-25T17:02:35;11.20;68.10
26099;DHT22;13860;52.370;6.764;2023-04-25T17:05:41;11.00;68.30
26099;DHT22;13860;52.370;6.764;2023-04-25T17:08:45;10.90;68.40
26099;DHT22;13860;52.370;6.764;2023-04-25T17:11:51;10.70;68.40
26099;DHT22;13860;52.370;6.764;2023-04-25T17:14:55;10.70;68.50
26099;DHT22;13860;52.370;6.764;2023-04-25T17:18:04;10.60;68.40
26099;DHT22;13860;52.370;6.764;2023-04-25T17:21:08;10.60;68.10
26099;DHT22;13860;52.370;6.764;2023-04-25T17:24:14;10.60;68.10
26099;DHT22;13860;52.370;6.764;2023-04-25T17:27:18;10.50;68.10
26099;DHT22;13860;52.370;6.764;2023-04-25T17:30:24;10.50;67.90
26099;DHT22;13860;52.370;6.764;2023-04-25T17:33:30;10.50;67.90
26099;DHT22;13860;52.370;6.764;2023-04-25T17:36:35;10.40;67.80
26099;DHT22;13860;52.370;6.764;2023-04-25T17:39:39;10.40;67.80
26099;DHT22;13860;52.370;6.764;2023-04-25T17:42:45;10.40;67.90
26099;DHT22;13860;52.370;6.764;2023-04-25T17:45:48;10.40;67.90
26099;DHT22;13860;52.370;6.764;2023-04-25T17:48:56;10.30;67.90
26099;DHT22;13860;52.370;6.764;2023-04-25T17:52:01;10.30;67.90
26099;DHT22;13860;52.370;6.764;2023-04-25T17:55:07;10.30;67.90
26099;DHT22;13860;52.370;6.764;2023-04-25T17:58:11;10.30;67.90
26099;DHT22;13860;52.370;6.764;2023-04-25T18:01:23;10.30;68.10
26099;DHT22;13860;52.370;6.764;2023-04-25T18:04:29;10.20;67.90
26099;DHT22;13860;52.370;6.764;2023-04-25T18:07:35;10.20;67.90
26099;DHT22;13860;52.370;6.764;2023-04-25T18:10:39;10.20;68.00
26099;DHT22;13860;52.370;6.764;2023-04-25T18:13:45;10.20;68.00
26099;DHT22;13860;52.370;6.764;2023-04-25T18:16:49;10.10;68.00
26099;DHT22;13860;52.370;6.764;2023-04-25T18:19:56;10.10;68.10
26099;DHT22;13860;52.370;6.764;2023-04-25T18:23:02;10.10;68.00
26099;DHT22;13860;52.370;6.764;2023-04-25T18:26:08;10.00;68.00
26099;DHT22;13860;52.370;6.764;2023-04-25T18:29:12;10.10;68.10
26099;DHT22;13860;52.370;6.764;2023-04-25T18:32:34;10.00;68.10
26099;DHT22;13860;52.370;6.764;2023-04-25T18:35:40;10.00;68.10
26099;DHT22;13860;52.370;6.764;2023-04-25T18:38:58;10.00;68.10
26099;DHT22;13860;52.370;6.764;2023-04-25T18:42:20;10.00;68.20
26099;DHT22;13860;52.370;6.764;2023-04-25T18:45:25;9.90;68.10
26099;DHT22;13860;52.370;6.764;2023-04-25T18:48:29;9.90;68.10
26099;DHT22;13860;52.370;6.764;2023-04-25T18:51:37;9.90;68.10
26099;DHT22;13860;52.370;6.764;2023-04-25T18:54:42;9.90;68.80
26099;DHT22;13860;52.370;6.764;2023-04-25T18:57:48;9.80;68.00
26099;DHT22;13860;52.370;6.764;2023-04-25T19:00:52;9.80;68.10
26099;DHT22;13860;52.370;6.764;2023-04-25T19:03:58;9.70;68.00
26099;DHT22;13860;52.370;6.764;2023-04-25T19:07:09;9.70;68.10
26099;DHT22;13860;52.370;6.764;2023-04-25T19:10:15;9.70;68.00
26099;DHT22;13860;52.370;6.764;2023-04-25T19:13:19;9.60;68.00
26099;DHT22;13860;52.370;6.764;2023-04-25T19:16:24;9.60;68.10
26099;DHT22;13860;52.370;6.764;2023-04-25T19:19:28;9.50;68.20
26099;DHT22;13860;52.370;6.764;2023-04-25T19:22:36;9.50;68.20
26099;DHT22;13860;52.370;6.764;2023-04-25T19:25:40;9.50;68.20
26099;DHT22;13860;52.370;6.764;2023-04-25T19:28:46;9.50;68.20
26099;DHT22;13860;52.370;6.764;2023-04-25T19:31:49;9.40;68.10
26099;DHT22;13860;52.370;6.764;2023-04-25T19:34:55;9.50;68.20
26099;DHT22;13860;52.370;6.764;2023-04-25T19:38:01;9.40;68.20
26099;DHT22;13860;52.370;6.764;2023-04-25T19:41:07;9.40;68.10
26099;DHT22;13860;52.370;6.764;2023-04-25T19:44:11;9.40;68.10
26099;DHT22;13860;52.370;6.764;2023-04-25T19:47:16;9.30;68.10
26099;DHT22;13860;52.370;6.764;2023-04-25T19:50:20;9.30;68.10
26099;DHT22;13860;52.370;6.764;2023-04-25T19:53:28;9.30;68.10